Au Sable, Michigan
Current Conditions -  °F | °C
As of 9:14 AM on Thursday 30 Oct 2014 (Local Time) from KOSC Reporting Station
Overcast Overcast  
Wind Chill: 35°   Ceiling: 7000
Heat Index: 35°   Visibility: 10mi
Dew Point: 33°   Wind: 3mph
Humidity: 94%   Direction: 250°WSW
Pressure: 30.11"   Gusts: NA
Location:  44.4539°N, 83.4813°W
Report Text: KOSC 301314Z AUTO 25003KT 10SM OVC070 01/00 A3011 RMK AO2 T00150007
Loading
Personal Weather Stations






























Interactive Weather Map New forecast layout! Learn more

10-Day Weather Forecast

Advertisements
Track Severe Weather on mobile